sensor_id;sensor_type;location;lat;lon;timestamp;temperature;humidity
20856;DHT22;63058;49.424;8.420;2022-10-31T00:00:28;16.10;89.10
20856;DHT22;63058;49.424;8.420;2022-10-31T00:02:54;16.10;88.80
20856;DHT22;63058;49.424;8.420;2022-10-31T00:05:20;16.10;88.40
20856;DHT22;63058;49.424;8.420;2022-10-31T00:07:46;16.10;88.60
20856;DHT22;63058;49.424;8.420;2022-10-31T00:10:11;16.00;88.80
20856;DHT22;63058;49.424;8.420;2022-10-31T00:12:37;16.00;88.90
20856;DHT22;63058;49.424;8.420;2022-10-31T00:15:03;16.00;88.90
20856;DHT22;63058;49.424;8.420;2022-10-31T00:17:28;16.00;88.80
20856;DHT22;63058;49.424;8.420;2022-10-31T00:19:54;16.00;88.60
20856;DHT22;63058;49.424;8.420;2022-10-31T00:22:20;16.00;88.40
20856;DHT22;63058;49.424;8.420;2022-10-31T00:24:45;16.00;88.60
20856;DHT22;63058;49.424;8.420;2022-10-31T00:27:11;15.90;88.40
20856;DHT22;63058;49.424;8.420;2022-10-31T00:29:37;16.00;88.30
20856;DHT22;63058;49.424;8.420;2022-10-31T00:32:02;15.90;88.30
20856;DHT22;63058;49.424;8.420;2022-10-31T00:34:28;15.90;88.30
20856;DHT22;63058;49.424;8.420;2022-10-31T00:36:54;15.90;88.40
20856;DHT22;63058;49.424;8.420;2022-10-31T00:39:19;15.80;88.20
20856;DHT22;63058;49.424;8.420;2022-10-31T00:41:45;15.80;88.30
20856;DHT22;63058;49.424;8.420;2022-10-31T00:44:10;15.80;88.40
20856;DHT22;63058;49.424;8.420;2022-10-31T00:46:36;15.80;88.60
20856;DHT22;63058;49.424;8.420;2022-10-31T00:49:02;15.80;88.50
20856;DHT22;63058;49.424;8.420;2022-10-31T00:51:27;15.60;88.20
20856;DHT22;63058;49.424;8.420;2022-10-31T00:53:53;15.70;88.30
20856;DHT22;63058;49.424;8.420;2022-10-31T00:56:19;15.70;88.40
20856;DHT22;63058;49.424;8.420;2022-10-31T00:58:44;15.70;88.90
20856;DHT22;63058;49.424;8.420;2022-10-31T01:01:10;15.70;89.00
20856;DHT22;63058;49.424;8.420;2022-10-31T01:03:35;15.70;88.60
20856;DHT22;63058;49.424;8.420;2022-10-31T01:06:08;15.70;88.60
20856;DHT22;63058;49.424;8.420;2022-10-31T01:08:35;15.70;88.70
20856;DHT22;63058;49.424;8.420;2022-10-31T01:11:08;15.60;88.70
20856;DHT22;63058;49.424;8.420;2022-10-31T01:13:35;15.60;89.10
20856;DHT22;63058;49.424;8.420;2022-10-31T01:16:02;15.60;89.10
20856;DHT22;63058;49.424;8.420;2022-10-31T01:18:29;15.60;89.10
20856;DHT22;63058;49.424;8.420;2022-10-31T01:21:09;15.60;89.10
20856;DHT22;63058;49.424;8.420;2022-10-31T01:23:35;15.60;89.70
20856;DHT22;63058;49.424;8.420;2022-10-31T01:26:21;15.60;89.50
20856;DHT22;63058;49.424;8.420;2022-10-31T01:28:55;15.60;89.90
20856;DHT22;63058;49.424;8.420;2022-10-31T01:31:30;15.60;89.90
20856;DHT22;63058;49.424;8.420;2022-10-31T01:33:57;15.60;89.70
20856;DHT22;63058;49.424;8.420;2022-10-31T01:36:28;15.60;89.80
20856;DHT22;63058;49.424;8.420;2022-10-31T01:38:57;15.60;89.90
20856;DHT22;63058;49.424;8.420;2022-10-31T01:41:30;15.70;89.90
20856;DHT22;63058;49.424;8.420;2022-10-31T01:44:00;15.70;89.70
20856;DHT22;63058;49.424;8.420;2022-10-31T01:48:55;15.70;90.00
20856;DHT22;63058;49.424;8.420;2022-10-31T01:51:27;15.70;89.90
20856;DHT22;63058;49.424;8.420;2022-10-31T01:53:56;15.70;90.00
20856;DHT22;63058;49.424;8.420;2022-10-31T01:56:23;15.70;89.70
20856;DHT22;63058;49.424;8.420;2022-10-31T01:58:49;15.70;89.50
20856;DHT22;63058;49.424;8.420;2022-10-31T02:01:16;15.70;89.60
20856;DHT22;63058;49.424;8.420;2022-10-31T02:03:44;15.70;89.70
20856;DHT22;63058;49.424;8.420;2022-10-31T02:06:26;15.70;89.70
20856;DHT22;63058;49.424;8.420;2022-10-31T02:08:52;15.70;90.10
20856;DHT22;63058;49.424;8.420;2022-10-31T02:11:19;15.70;89.50
20856;DHT22;63058;49.424;8.420;2022-10-31T02:13:45;15.60;89.20
20856;DHT22;63058;49.424;8.420;2022-10-31T02:16:11;15.60;89.00
20856;DHT22;63058;49.424;8.420;2022-10-31T02:18:37;15.60;89.10
20856;DHT22;63058;49.424;8.420;2022-10-31T02:26:54;15.50;90.30
20856;DHT22;63058;49.424;8.420;2022-10-31T02:37:32;15.50;90.20
20856;DHT22;63058;49.424;8.420;2022-10-31T02:40:10;15.50;90.10
20856;DHT22;63058;49.424;8.420;2022-10-31T02:45:32;15.50;90.00
20856;DHT22;63058;49.424;8.420;2022-10-31T02:48:04;15.50;89.90
20856;DHT22;63058;49.424;8.420;2022-10-31T02:50:35;15.40;89.40
20856;DHT22;63058;49.424;8.420;2022-10-31T02:53:02;15.30;89.50
20856;DHT22;63058;49.424;8.420;2022-10-31T02:58:10;15.20;89.60
20856;DHT22;63058;49.424;8.420;2022-10-31T03:03:19;15.10;90.20
20856;DHT22;63058;49.424;8.420;2022-10-31T03:06:03;15.20;90.20
20856;DHT22;63058;49.424;8.420;2022-10-31T03:11:12;15.10;90.20
20856;DHT22;63058;49.424;8.420;2022-10-31T03:13:51;15.10;90.10
20856;DHT22;63058;49.424;8.420;2022-10-31T03:19:05;15.10;90.30
20856;DHT22;63058;49.424;8.420;2022-10-31T03:21:44;15.10;90.20
20856;DHT22;63058;49.424;8.420;2022-10-31T03:24:11;15.00;90.10
20856;DHT22;63058;49.424;8.420;2022-10-31T03:26:44;15.00;90.00
20856;DHT22;63058;49.424;8.420;2022-10-31T03:29:14;15.00;90.10
20856;DHT22;63058;49.424;8.420;2022-10-31T03:31:52;14.90;90.20
20856;DHT22;63058;49.424;8.420;2022-10-31T03:34:20;14.90;90.40
20856;DHT22;63058;49.424;8.420;2022-10-31T03:36:50;14.90;90.30
20856;DHT22;63058;49.424;8.420;2022-10-31T03:39:19;14.90;90.50
20856;DHT22;63058;49.424;8.420;2022-10-31T03:41:49;14.90;90.50
20856;DHT22;63058;49.424;8.420;2022-10-31T03:44:19;14.90;90.50
20856;DHT22;63058;49.424;8.420;2022-10-31T03:46:46;14.90;90.50
20856;DHT22;63058;49.424;8.420;2022-10-31T03:49:12;14.90;90.40
20856;DHT22;63058;49.424;8.420;2022-10-31T03:51:39;15.00;90.30
20856;DHT22;63058;49.424;8.420;2022-10-31T03:54:24;14.90;90.20
20856;DHT22;63058;49.424;8.420;2022-10-31T03:56:57;14.90;90.50
20856;DHT22;63058;49.424;8.420;2022-10-31T03:59:28;14.90;90.50
20856;DHT22;63058;49.424;8.420;2022-10-31T04:02:00;14.90;90.40
20856;DHT22;63058;49.424;8.420;2022-10-31T04:04:29;14.90;90.30
20856;DHT22;63058;49.424;8.420;2022-10-31T04:06:56;15.00;90.20
20856;DHT22;63058;49.424;8.420;2022-10-31T04:09:25;14.90;90.30
20856;DHT22;63058;49.424;8.420;2022-10-31T04:11:53;14.90;90.30
20856;DHT22;63058;49.424;8.420;2022-10-31T04:14:21;14.90;90.40
20856;DHT22;63058;49.424;8.420;2022-10-31T04:16:49;14.90;90.40
20856;DHT22;63058;49.424;8.420;2022-10-31T04:19:15;14.90;90.40
20856;DHT22;63058;49.424;8.420;2022-10-31T04:21:40;14.80;90.50
20856;DHT22;63058;49.424;8.420;2022-10-31T04:24:09;14.80;90.50
20856;DHT22;63058;49.424;8.420;2022-10-31T04:26:34;14.80;90.50
20856;DHT22;63058;49.424;8.420;2022-10-31T04:29:00;14.80;90.50
20856;DHT22;63058;49.424;8.420;2022-10-31T04:31:26;14.80;90.50
20856;DHT22;63058;49.424;8.420;2022-10-31T04:33:52;14.80;90.50
20856;DHT22;63058;49.424;8.420;2022-10-31T04:36:17;14.80;90.40
20856;DHT22;63058;49.424;8.420;2022-10-31T04:38:43;14.80;90.30
20856;DHT22;63058;49.424;8.420;2022-10-31T04:41:08;14.70;90.30
20856;DHT22;63058;49.424;8.420;2022-10-31T04:43:34;14.70;90.20
20856;DHT22;63058;49.424;8.420;2022-10-31T04:46:00;14.60;90.20
20856;DHT22;63058;49.424;8.420;2022-10-31T04:48:26;14.60;90.20
20856;DHT22;63058;49.424;8.420;2022-10-31T04:50:51;14.50;90.20
20856;DHT22;63058;49.424;8.420;2022-10-31T04:53:17;14.50;90.30
20856;DHT22;63058;49.424;8.420;2022-10-31T04:55:42;14.40;90.40
20856;DHT22;63058;49.424;8.420;2022-10-31T04:58:08;14.40;90.40
20856;DHT22;63058;49.424;8.420;2022-10-31T05:00:34;14.40;90.20
20856;DHT22;63058;49.424;8.420;2022-10-31T05:02:59;14.40;90.20
20856;DHT22;63058;49.424;8.420;2022-10-31T05:05:28;14.30;90.20
20856;DHT22;63058;49.424;8.420;2022-10-31T05:07:54;14.30;90.40
20856;DHT22;63058;49.424;8.420;2022-10-31T05:10:22;14.20;90.40
20856;DHT22;63058;49.424;8.420;2022-10-31T05:12:53;14.20;90.50
20856;DHT22;63058;49.424;8.420;2022-10-31T05:15:21;14.20;90.60
20856;DHT22;63058;49.424;8.420;2022-10-31T05:17:48;14.20;90.50
20856;DHT22;63058;49.424;8.420;2022-10-31T05:20:15;14.10;90.50
20856;DHT22;63058;49.424;8.420;2022-10-31T05:22:45;14.20;90.60
20856;DHT22;63058;49.424;8.420;2022-10-31T05:25:12;14.10;90.70
20856;DHT22;63058;49.424;8.420;2022-10-31T05:27:42;14.10;90.70
20856;DHT22;63058;49.424;8.420;2022-10-31T05:30:09;14.20;90.90
20856;DHT22;63058;49.424;8.420;2022-10-31T05:32:39;14.20;90.70
20856;DHT22;63058;49.424;8.420;2022-10-31T05:35:07;14.20;90.70
20856;DHT22;63058;49.424;8.420;2022-10-31T05:37:37;14.20;90.80
20856;DHT22;63058;49.424;8.420;2022-10-31T05:40:03;14.30;90.70
20856;DHT22;63058;49.424;8.420;2022-10-31T05:42:29;14.30;90.80
20856;DHT22;63058;49.424;8.420;2022-10-31T05:44:55;14.30;90.80
20856;DHT22;63058;49.424;8.420;2022-10-31T05:47:20;14.30;90.70
20856;DHT22;63058;49.424;8.420;2022-10-31T05:49:46;14.30;90.50
20856;DHT22;63058;49.424;8.420;2022-10-31T05:52:12;14.30;90.40
20856;DHT22;63058;49.424;8.420;2022-10-31T05:54:37;14.30;90.40
20856;DHT22;63058;49.424;8.420;2022-10-31T05:57:03;14.30;90.40
20856;DHT22;63058;49.424;8.420;2022-10-31T05:59:29;14.30;90.30
20856;DHT22;63058;49.424;8.420;2022-10-31T06:01:54;14.30;90.30
20856;DHT22;63058;49.424;8.420;2022-10-31T06:04:20;14.30;90.50
20856;DHT22;63058;49.424;8.420;2022-10-31T06:06:45;14.30;90.60
20856;DHT22;63058;49.424;8.420;2022-10-31T06:09:11;14.30;90.60
20856;DHT22;63058;49.424;8.420;2022-10-31T06:11:37;14.30;90.40
20856;DHT22;63058;49.424;8.420;2022-10-31T06:14:03;14.30;90.40
20856;DHT22;63058;49.424;8.420;2022-10-31T06:16:28;14.30;90.50
20856;DHT22;63058;49.424;8.420;2022-10-31T06:18:54;14.30;90.60
20856;DHT22;63058;49.424;8.420;2022-10-31T06:21:20;14.30;90.60
20856;DHT22;63058;49.424;8.420;2022-10-31T06:23:45;14.30;90.70
20856;DHT22;63058;49.424;8.420;2022-10-31T06:26:11;14.40;90.70
20856;DHT22;63058;49.424;8.420;2022-10-31T06:28:36;14.40;90.70
20856;DHT22;63058;49.424;8.420;2022-10-31T06:31:02;14.40;90.70
20856;DHT22;63058;49.424;8.420;2022-10-31T06:33:28;14.40;90.70
20856;DHT22;63058;49.424;8.420;2022-10-31T06:35:53;14.50;90.80
20856;DHT22;63058;49.424;8.420;2022-10-31T06:38:19;14.50;90.90
20856;DHT22;63058;49.424;8.420;2022-10-31T06:40:44;14.50;90.90
20856;DHT22;63058;49.424;8.420;2022-10-31T06:43:10;14.60;90.90
20856;DHT22;63058;49.424;8.420;2022-10-31T06:45:37;14.60;91.00
20856;DHT22;63058;49.424;8.420;2022-10-31T06:48:03;14.60;91.00
20856;DHT22;63058;49.424;8.420;2022-10-31T06:50:29;14.70;91.00
20856;DHT22;63058;49.424;8.420;2022-10-31T06:52:57;14.70;91.00
20856;DHT22;63058;49.424;8.420;2022-10-31T06:55:23;14.80;90.90
20856;DHT22;63058;49.424;8.420;2022-10-31T06:57:53;14.80;90.90
20856;DHT22;63058;49.424;8.420;2022-10-31T07:00:19;14.80;91.10
20856;DHT22;63058;49.424;8.420;2022-10-31T07:03:01;14.90;91.10
20856;DHT22;63058;49.424;8.420;2022-10-31T07:05:28;14.90;91.10
20856;DHT22;63058;49.424;8.420;2022-10-31T07:07:58;14.90;90.90
20856;DHT22;63058;49.424;8.420;2022-10-31T07:10:26;14.90;90.90
20856;DHT22;63058;49.424;8.420;2022-10-31T07:13:00;14.90;91.00
20856;DHT22;63058;49.424;8.420;2022-10-31T07:15:28;15.00;91.20
20856;DHT22;63058;49.424;8.420;2022-10-31T07:17:58;15.00;91.20
20856;DHT22;63058;49.424;8.420;2022-10-31T07:20:24;15.10;91.20
20856;DHT22;63058;49.424;8.420;2022-10-31T07:22:50;15.10;91.30
20856;DHT22;63058;49.424;8.420;2022-10-31T07:25:16;15.20;91.40
20856;DHT22;63058;49.424;8.420;2022-10-31T07:27:42;15.20;91.30
20856;DHT22;63058;49.424;8.420;2022-10-31T07:30:10;15.30;91.40
20856;DHT22;63058;49.424;8.420;2022-10-31T07:32:39;15.30;91.40
20856;DHT22;63058;49.424;8.420;2022-10-31T07:35:07;15.40;91.50
20856;DHT22;63058;49.424;8.420;2022-10-31T07:37:33;15.40;91.50
20856;DHT22;63058;49.424;8.420;2022-10-31T07:39:59;15.50;91.60
20856;DHT22;63058;49.424;8.420;2022-10-31T07:42:24;15.50;91.60
20856;DHT22;63058;49.424;8.420;2022-10-31T07:44:50;15.60;91.70
20856;DHT22;63058;49.424;8.420;2022-10-31T07:47:16;15.70;91.70
20856;DHT22;63058;49.424;8.420;2022-10-31T07:49:41;15.70;91.80
20856;DHT22;63058;49.424;8.420;2022-10-31T07:52:07;15.80;91.80
20856;DHT22;63058;49.424;8.420;2022-10-31T07:54:32;15.90;91.80
20856;DHT22;63058;49.424;8.420;2022-10-31T07:56:58;15.90;91.80
20856;DHT22;63058;49.424;8.420;2022-10-31T07:59:24;16.00;91.90
20856;DHT22;63058;49.424;8.420;2022-10-31T08:01:51;16.10;91.90
20856;DHT22;63058;49.424;8.420;2022-10-31T08:04:16;16.10;91.90
20856;DHT22;63058;49.424;8.420;2022-10-31T08:06:43;16.20;91.90
20856;DHT22;63058;49.424;8.420;2022-10-31T08:09:08;16.30;91.90
20856;DHT22;63058;49.424;8.420;2022-10-31T08:11:34;16.40;92.00
20856;DHT22;63058;49.424;8.420;2022-10-31T08:14:02;16.50;92.10
20856;DHT22;63058;49.424;8.420;2022-10-31T08:16:27;16.60;92.10
20856;DHT22;63058;49.424;8.420;2022-10-31T08:18:53;16.60;92.10
20856;DHT22;63058;49.424;8.420;2022-10-31T08:21:21;16.70;92.10
20856;DHT22;63058;49.424;8.420;2022-10-31T08:23:46;16.80;92.10
20856;DHT22;63058;49.424;8.420;2022-10-31T08:26:12;16.90;92.10
20856;DHT22;63058;49.424;8.420;2022-10-31T08:28:39;17.00;92.20
20856;DHT22;63058;49.424;8.420;2022-10-31T08:31:05;17.00;92.10
20856;DHT22;63058;49.424;8.420;2022-10-31T08:33:31;17.10;92.10
20856;DHT22;63058;49.424;8.420;2022-10-31T08:35:59;17.20;92.20
20856;DHT22;63058;49.424;8.420;2022-10-31T08:38:25;17.20;92.20
20856;DHT22;63058;49.424;8.420;2022-10-31T08:40:51;17.30;92.30
20856;DHT22;63058;49.424;8.420;2022-10-31T08:43:17;17.30;92.30
20856;DHT22;63058;49.424;8.420;2022-10-31T08:45:44;17.40;92.30
20856;DHT22;63058;49.424;8.420;2022-10-31T08:48:13;17.50;92.40
20856;DHT22;63058;49.424;8.420;2022-10-31T08:50:39;17.50;92.30
20856;DHT22;63058;49.424;8.420;2022-10-31T08:53:11;17.60;92.20
20856;DHT22;63058;49.424;8.420;2022-10-31T08:55:38;17.60;92.30
20856;DHT22;63058;49.424;8.420;2022-10-31T08:58:07;17.60;92.30
20856;DHT22;63058;49.424;8.420;2022-10-31T09:00:35;17.70;92.30
20856;DHT22;63058;49.424;8.420;2022-10-31T09:03:03;17.70;92.30
20856;DHT22;63058;49.424;8.420;2022-10-31T09:05:28;17.80;92.30
20856;DHT22;63058;49.424;8.420;2022-10-31T09:07:58;17.80;92.30
20856;DHT22;63058;49.424;8.420;2022-10-31T09:10:25;17.80;92.20
20856;DHT22;63058;49.424;8.420;2022-10-31T09:12:56;17.90;92.30
20856;DHT22;63058;49.424;8.420;2022-10-31T09:15:22;18.00;92.30
20856;DHT22;63058;49.424;8.420;2022-10-31T09:17:49;18.00;92.40
20856;DHT22;63058;49.424;8.420;2022-10-31T09:20:16;18.10;92.40
20856;DHT22;63058;49.424;8.420;2022-10-31T09:22:42;18.10;92.40
20856;DHT22;63058;49.424;8.420;2022-10-31T09:25:11;18.20;92.50
20856;DHT22;63058;49.424;8.420;2022-10-31T09:27:37;18.30;92.60
20856;DHT22;63058;49.424;8.420;2022-10-31T09:30:03;18.40;92.60
20856;DHT22;63058;49.424;8.420;2022-10-31T09:32:29;18.50;92.60
20856;DHT22;63058;49.424;8.420;2022-10-31T09:34:55;18.60;92.70
20856;DHT22;63058;49.424;8.420;2022-10-31T09:37:20;18.70;92.60
20856;DHT22;63058;49.424;8.420;2022-10-31T09:39:46;18.70;92.50
20856;DHT22;63058;49.424;8.420;2022-10-31T09:42:35;18.80;92.60
20856;DHT22;63058;49.424;8.420;2022-10-31T09:45:14;18.90;92.30
20856;DHT22;63058;49.424;8.420;2022-10-31T09:50:20;19.20;92.50
20856;DHT22;63058;49.424;8.420;2022-10-31T09:53:17;19.40;92.70
20856;DHT22;63058;49.424;8.420;2022-10-31T09:55:47;19.50;92.40
20856;DHT22;63058;49.424;8.420;2022-10-31T09:58:27;19.70;92.70
20856;DHT22;63058;49.424;8.420;2022-10-31T10:00:56;19.90;92.20
20856;DHT22;63058;49.424;8.420;2022-10-31T10:03:38;20.10;92.60
20856;DHT22;63058;49.424;8.420;2022-10-31T10:06:14;20.30;92.60
20856;DHT22;63058;49.424;8.420;2022-10-31T10:08:41;20.50;92.40
20856;DHT22;63058;49.424;8.420;2022-10-31T10:17:08;21.00;91.60
20856;DHT22;63058;49.424;8.420;2022-10-31T10:20:27;21.10;92.00
20856;DHT22;63058;49.424;8.420;2022-10-31T10:25:42;21.60;92.00
20856;DHT22;63058;49.424;8.420;2022-10-31T10:28:21;21.90;92.20
20856;DHT22;63058;49.424;8.420;2022-10-31T10:31:01;22.10;91.30
20856;DHT22;63058;49.424;8.420;2022-10-31T10:34:10;22.40;91.70
20856;DHT22;63058;49.424;8.420;2022-10-31T10:36:32;22.70;91.40
20856;DHT22;63058;49.424;8.420;2022-10-31T10:39:24;23.00;91.10
20856;DHT22;63058;49.424;8.420;2022-10-31T10:41:51;23.30;90.80
20856;DHT22;63058;49.424;8.420;2022-10-31T10:44:40;23.60;90.70
20856;DHT22;63058;49.424;8.420;2022-10-31T10:47:34;23.70;88.90
20856;DHT22;63058;49.424;8.420;2022-10-31T10:50:12;23.80;89.00
20856;DHT22;63058;49.424;8.420;2022-10-31T10:53:05;23.90;88.10
20856;DHT22;63058;49.424;8.420;2022-10-31T10:58:16;23.90;86.80
20856;DHT22;63058;49.424;8.420;2022-10-31T11:00:43;24.00;88.70
20856;DHT22;63058;49.424;8.420;2022-10-31T11:03:11;24.00;88.10
20856;DHT22;63058;49.424;8.420;2022-10-31T11:05:56;24.00;87.70
20856;DHT22;63058;49.424;8.420;2022-10-31T11:08:29;23.90;85.50
20856;DHT22;63058;49.424;8.420;2022-10-31T11:13:35;23.80;85.30
20856;DHT22;63058;49.424;8.420;2022-10-31T11:16:09;23.70;86.80
20856;DHT22;63058;49.424;8.420;2022-10-31T11:18:41;23.70;86.80
20856;DHT22;63058;49.424;8.420;2022-10-31T11:21:26;23.70;86.10
20856;DHT22;63058;49.424;8.420;2022-10-31T11:26:41;23.60;84.90
20856;DHT22;63058;49.424;8.420;2022-10-31T11:29:24;23.60;86.60
20856;DHT22;63058;49.424;8.420;2022-10-31T11:31:55;23.50;84.60
20856;DHT22;63058;49.424;8.420;2022-10-31T11:34:29;23.50;85.70
20856;DHT22;63058;49.424;8.420;2022-10-31T11:37:02;23.50;86.10
20856;DHT22;63058;49.424;8.420;2022-10-31T11:39:28;23.40;85.30
20856;DHT22;63058;49.424;8.420;2022-10-31T11:41:59;23.40;85.80
20856;DHT22;63058;49.424;8.420;2022-10-31T11:44:29;23.40;85.60
20856;DHT22;63058;49.424;8.420;2022-10-31T11:46:58;23.40;85.20
20856;DHT22;63058;49.424;8.420;2022-10-31T11:51:57;23.40;85.00
20856;DHT22;63058;49.424;8.420;2022-10-31T11:54:27;23.40;85.30
20856;DHT22;63058;49.424;8.420;2022-10-31T11:56:53;23.40;84.70
20856;DHT22;63058;49.424;8.420;2022-10-31T11:59:30;23.40;85.20
20856;DHT22;63058;49.424;8.420;2022-10-31T12:01:58;23.30;83.80
20856;DHT22;63058;49.424;8.420;2022-10-31T12:06:58;23.30;83.80
20856;DHT22;63058;49.424;8.420;2022-10-31T12:09:30;23.20;84.10
20856;DHT22;63058;49.424;8.420;2022-10-31T12:17:35;22.80;83.30
20856;DHT22;63058;49.424;8.420;2022-10-31T12:20:27;22.70;83.60
20856;DHT22;63058;49.424;8.420;2022-10-31T12:23:14;22.60;83.80
20856;DHT22;63058;49.424;8.420;2022-10-31T12:25:50;22.60;84.10
20856;DHT22;63058;49.424;8.420;2022-10-31T12:36:47;22.50;84.40
20856;DHT22;63058;49.424;8.420;2022-10-31T12:40:00;22.40;84.40
20856;DHT22;63058;49.424;8.420;2022-10-31T12:42:31;22.40;84.30
20856;DHT22;63058;49.424;8.420;2022-10-31T12:51:22;22.10;83.20
20856;DHT22;63058;49.424;8.420;2022-10-31T12:59:53;21.90;83.60
20856;DHT22;63058;49.424;8.420;2022-10-31T13:02:39;21.90;83.90
20856;DHT22;63058;49.424;8.420;2022-10-31T13:06:07;21.90;84.20
20856;DHT22;63058;49.424;8.420;2022-10-31T13:19:23;22.00;84.30
20856;DHT22;63058;49.424;8.420;2022-10-31T13:24:23;22.00;84.80
20856;DHT22;63058;49.424;8.420;2022-10-31T13:26:54;21.90;84.60
20856;DHT22;63058;49.424;8.420;2022-10-31T13:29:28;21.90;84.60
20856;DHT22;63058;49.424;8.420;2022-10-31T13:31:55;21.90;84.50
20856;DHT22;63058;49.424;8.420;2022-10-31T13:34:29;21.90;86.30
20856;DHT22;63058;49.424;8.420;2022-10-31T13:37:27;22.10;87.90
20856;DHT22;63058;49.424;8.420;2022-10-31T13:42:19;23.10;90.80
20856;DHT22;63058;49.424;8.420;2022-10-31T13:44:46;23.80;91.70
20856;DHT22;63058;49.424;8.420;2022-10-31T13:47:40;24.50;91.60
20856;DHT22;63058;49.424;8.420;2022-10-31T13:50:22;25.40;90.50
20856;DHT22;63058;49.424;8.420;2022-10-31T13:52:48;26.20;90.50
20856;DHT22;63058;49.424;8.420;2022-10-31T13:58:21;27.40;84.10
20856;DHT22;63058;49.424;8.420;2022-10-31T14:03:37;27.60;77.60
20856;DHT22;63058;49.424;8.420;2022-10-31T14:06:04;27.50;79.10
20856;DHT22;63058;49.424;8.420;2022-10-31T14:08:34;27.50;78.80
20856;DHT22;63058;49.424;8.420;2022-10-31T14:11:01;27.60;78.30
20856;DHT22;63058;49.424;8.420;2022-10-31T14:13:34;27.70;79.80
20856;DHT22;63058;49.424;8.420;2022-10-31T14:16:16;27.90;78.00
20856;DHT22;63058;49.424;8.420;2022-10-31T14:18:46;28.10;78.00
20856;DHT22;63058;49.424;8.420;2022-10-31T14:23:48;28.20;74.30
20856;DHT22;63058;49.424;8.420;2022-10-31T14:28:58;27.70;71.80
20856;DHT22;63058;49.424;8.420;2022-10-31T14:33:53;26.90;70.50
20856;DHT22;63058;49.424;8.420;2022-10-31T14:36:33;26.50;71.50
20856;DHT22;63058;49.424;8.420;2022-10-31T14:42:05;25.60;70.30
20856;DHT22;63058;49.424;8.420;2022-10-31T14:52:26;23.90;72.00
20856;DHT22;63058;49.424;8.420;2022-10-31T14:54:55;23.60;72.70
20856;DHT22;63058;49.424;8.420;2022-10-31T14:57:29;23.30;73.30
20856;DHT22;63058;49.424;8.420;2022-10-31T15:00:04;23.00;74.00
20856;DHT22;63058;49.424;8.420;2022-10-31T15:05:16;22.50;75.00
20856;DHT22;63058;49.424;8.420;2022-10-31T15:07:53;22.30;75.40
20856;DHT22;63058;49.424;8.420;2022-10-31T15:10:32;22.20;76.10
20856;DHT22;63058;49.424;8.420;2022-10-31T15:13:13;22.00;76.40
20856;DHT22;63058;49.424;8.420;2022-10-31T15:15:42;21.90;76.70
20856;DHT22;63058;49.424;8.420;2022-10-31T15:18:16;21.80;76.80
20856;DHT22;63058;49.424;8.420;2022-10-31T15:20:44;21.60;77.30
20856;DHT22;63058;49.424;8.420;2022-10-31T15:23:15;21.60;77.60
20856;DHT22;63058;49.424;8.420;2022-10-31T15:25:41;21.50;77.70
20856;DHT22;63058;49.424;8.420;2022-10-31T15:28:22;21.30;77.90
20856;DHT22;63058;49.424;8.420;2022-10-31T15:30:54;21.20;78.50
20856;DHT22;63058;49.424;8.420;2022-10-31T15:33:39;21.20;78.60
20856;DHT22;63058;49.424;8.420;2022-10-31T15:36:05;21.10;78.90
20856;DHT22;63058;49.424;8.420;2022-10-31T15:38:31;21.00;78.90
20856;DHT22;63058;49.424;8.420;2022-10-31T15:41:04;20.90;79.00
20856;DHT22;63058;49.424;8.420;2022-10-31T15:43:36;20.80;79.30
20856;DHT22;63058;49.424;8.420;2022-10-31T15:46:06;20.80;79.60
20856;DHT22;63058;49.424;8.420;2022-10-31T15:48:32;20.70;79.60
20856;DHT22;63058;49.424;8.420;2022-10-31T15:50:59;20.60;79.90
20856;DHT22;63058;49.424;8.420;2022-10-31T15:53:36;20.60;80.10
20856;DHT22;63058;49.424;8.420;2022-10-31T15:56:06;20.50;80.50
20856;DHT22;63058;49.424;8.420;2022-10-31T15:58:42;20.40;80.40
20856;DHT22;63058;49.424;8.420;2022-10-31T16:03:59;20.30;80.90
20856;DHT22;63058;49.424;8.420;2022-10-31T16:06:26;20.20;81.00
20856;DHT22;63058;49.424;8.420;2022-10-31T16:08:51;20.10;80.40
20856;DHT22;63058;49.424;8.420;2022-10-31T16:14:07;19.90;81.20
20856;DHT22;63058;49.424;8.420;2022-10-31T16:16:43;19.90;81.80
20856;DHT22;63058;49.424;8.420;2022-10-31T16:22:19;19.70;82.40
20856;DHT22;63058;49.424;8.420;2022-10-31T16:27:30;19.50;82.20
20856;DHT22;63058;49.424;8.420;2022-10-31T16:29:58;19.40;82.40
20856;DHT22;63058;49.424;8.420;2022-10-31T16:32:55;19.40;82.70
20856;DHT22;63058;49.424;8.420;2022-10-31T16:35:33;19.30;84.20
20856;DHT22;63058;49.424;8.420;2022-10-31T16:37:59;19.20;83.90
20856;DHT22;63058;49.424;8.420;2022-10-31T16:40:25;19.10;83.80
20856;DHT22;63058;49.424;8.420;2022-10-31T16:42:51;19.00;84.10
20856;DHT22;63058;49.424;8.420;2022-10-31T16:45:19;19.00;84.40
20856;DHT22;63058;49.424;8.420;2022-10-31T16:47:46;19.00;84.70
20856;DHT22;63058;49.424;8.420;2022-10-31T16:50:24;19.00;84.60
20856;DHT22;63058;49.424;8.420;2022-10-31T16:52:51;19.00;85.30
20856;DHT22;63058;49.424;8.420;2022-10-31T16:55:18;19.00;84.60
20856;DHT22;63058;49.424;8.420;2022-10-31T16:57:51;19.00;84.70
20856;DHT22;63058;49.424;8.420;2022-10-31T17:00:20;18.90;85.10
20856;DHT22;63058;49.424;8.420;2022-10-31T17:02:47;18.90;84.90
20856;DHT22;63058;49.424;8.420;2022-10-31T17:05:15;18.90;84.90
20856;DHT22;63058;49.424;8.420;2022-10-31T17:07:41;18.90;84.70
20856;DHT22;63058;49.424;8.420;2022-10-31T17:10:09;18.90;84.70
20856;DHT22;63058;49.424;8.420;2022-10-31T17:12:35;18.90;84.80
20856;DHT22;63058;49.424;8.420;2022-10-31T17:15:03;18.80;84.70
20856;DHT22;63058;49.424;8.420;2022-10-31T17:17:29;18.80;84.80
20856;DHT22;63058;49.424;8.420;2022-10-31T17:19:54;18.70;84.80
20856;DHT22;63058;49.424;8.420;2022-10-31T17:22:20;18.60;84.90
20856;DHT22;63058;49.424;8.420;2022-10-31T17:24:45;18.50;84.80
20856;DHT22;63058;49.424;8.420;2022-10-31T17:27:11;18.40;84.70
20856;DHT22;63058;49.424;8.420;2022-10-31T17:29:36;18.30;84.90
20856;DHT22;63058;49.424;8.420;2022-10-31T17:32:02;18.30;85.30
20856;DHT22;63058;49.424;8.420;2022-10-31T17:34:29;18.20;85.70
20856;DHT22;63058;49.424;8.420;2022-10-31T17:36:54;18.10;85.80
20856;DHT22;63058;49.424;8.420;2022-10-31T17:39:20;18.00;86.10
20856;DHT22;63058;49.424;8.420;2022-10-31T17:41:50;18.00;86.40
20856;DHT22;63058;49.424;8.420;2022-10-31T17:44:17;17.90;86.90
20856;DHT22;63058;49.424;8.420;2022-10-31T17:46:43;17.90;86.50
20856;DHT22;63058;49.424;8.420;2022-10-31T17:49:10;17.90;86.50
20856;DHT22;63058;49.424;8.420;2022-10-31T17:51:36;17.80;86.70
20856;DHT22;63058;49.424;8.420;2022-10-31T17:54:02;17.80;86.40
20856;DHT22;63058;49.424;8.420;2022-10-31T17:56:29;17.70;86.50
20856;DHT22;63058;49.424;8.420;2022-10-31T17:58:55;17.70;86.90
20856;DHT22;63058;49.424;8.420;2022-10-31T18:01:22;17.60;87.10